sensor_id;sensor_type;location;lat;lon;timestamp;temperature;humidity
22674;DHT22;11504;43.334;21.918;2024-02-26T00:00:35;13.7;100.0
22674;DHT22;11504;43.334;21.918;2024-02-26T00:05:12;13.6;100.0
22674;DHT22;11504;43.334;21.918;2024-02-26T00:09:48;13.6;100.0
22674;DHT22;11504;43.334;21.918;2024-02-26T00:14:24;13.6;100.0
22674;DHT22;11504;43.334;21.918;2024-02-26T00:19:01;13.6;100.0
22674;DHT22;11504;43.334;21.918;2024-02-26T00:23:38;13.6;100.0
22674;DHT22;11504;43.334;21.918;2024-02-26T00:28:14;13.6;100.0
22674;DHT22;11504;43.334;21.918;2024-02-26T00:32:50;13.5;100.0
22674;DHT22;11504;43.334;21.918;2024-02-26T00:37:27;13.5;100.0
22674;DHT22;11504;43.334;21.918;2024-02-26T00:42:03;13.5;100.0
22674;DHT22;11504;43.334;21.918;2024-02-26T00:46:40;13.5;100.0
22674;DHT22;11504;43.334;21.918;2024-02-26T00:51:16;13.5;100.0
22674;DHT22;11504;43.334;21.918;2024-02-26T00:55:53;13.5;100.0
22674;DHT22;11504;43.334;21.918;2024-02-26T01:00:29;13.5;100.0
22674;DHT22;11504;43.334;21.918;2024-02-26T01:05:07;13.5;100.0
22674;DHT22;11504;43.334;21.918;2024-02-26T01:09:45;13.5;100.0
22674;DHT22;11504;43.334;21.918;2024-02-26T01:14:21;13.5;100.0
22674;DHT22;11504;43.334;21.918;2024-02-26T01:18:57;13.5;100.0
22674;DHT22;11504;43.334;21.918;2024-02-26T01:23:34;13.6;100.0
22674;DHT22;11504;43.334;21.918;2024-02-26T01:28:10;13.6;100.0
22674;DHT22;11504;43.334;21.918;2024-02-26T01:32:47;13.6;100.0
22674;DHT22;11504;43.334;21.918;2024-02-26T01:37:23;13.6;100.0
22674;DHT22;11504;43.334;21.918;2024-02-26T01:42:01;13.6;100.0
22674;DHT22;11504;43.334;21.918;2024-02-26T01:46:38;13.4;100.0
22674;DHT22;11504;43.334;21.918;2024-02-26T01:51:16;13.4;100.0
22674;DHT22;11504;43.334;21.918;2024-02-26T01:55:53;13.3;100.0
22674;DHT22;11504;43.334;21.918;2024-02-26T02:00:30;13.3;100.0
22674;DHT22;11504;43.334;21.918;2024-02-26T02:05:10;13.2;100.0
22674;DHT22;11504;43.334;21.918;2024-02-26T02:09:50;13.2;100.0
22674;DHT22;11504;43.334;21.918;2024-02-26T02:14:28;13.2;100.0
22674;DHT22;11504;43.334;21.918;2024-02-26T02:19:04;13.2;100.0
22674;DHT22;11504;43.334;21.918;2024-02-26T02:23:41;13.2;100.0
22674;DHT22;11504;43.334;21.918;2024-02-26T02:28:18;13.2;100.0
22674;DHT22;11504;43.334;21.918;2024-02-26T02:32:58;13.3;100.0
22674;DHT22;11504;43.334;21.918;2024-02-26T02:37:35;13.3;100.0
22674;DHT22;11504;43.334;21.918;2024-02-26T02:42:11;13.3;100.0
22674;DHT22;11504;43.334;21.918;2024-02-26T02:46:48;13.4;100.0
22674;DHT22;11504;43.334;21.918;2024-02-26T02:51:24;13.4;100.0
22674;DHT22;11504;43.334;21.918;2024-02-26T02:56:00;13.4;100.0
22674;DHT22;11504;43.334;21.918;2024-02-26T03:00:36;13.4;100.0
22674;DHT22;11504;43.334;21.918;2024-02-26T03:05:12;13.4;100.0
22674;DHT22;11504;43.334;21.918;2024-02-26T03:09:48;13.4;100.0
22674;DHT22;11504;43.334;21.918;2024-02-26T03:14:24;13.3;100.0
22674;DHT22;11504;43.334;21.918;2024-02-26T03:19:00;13.3;100.0
22674;DHT22;11504;43.334;21.918;2024-02-26T03:23:36;13.2;100.0
22674;DHT22;11504;43.334;21.918;2024-02-26T03:28:12;13.2;100.0
22674;DHT22;11504;43.334;21.918;2024-02-26T03:32:49;13.0;100.0
22674;DHT22;11504;43.334;21.918;2024-02-26T03:37:25;13.0;100.0
22674;DHT22;11504;43.334;21.918;2024-02-26T03:42:02;13.0;100.0
22674;DHT22;11504;43.334;21.918;2024-02-26T03:46:39;13.0;100.0
22674;DHT22;11504;43.334;21.918;2024-02-26T03:51:16;13.0;100.0
22674;DHT22;11504;43.334;21.918;2024-02-26T03:55:53;12.9;100.0
22674;DHT22;11504;43.334;21.918;2024-02-26T04:00:30;12.9;100.0
22674;DHT22;11504;43.334;21.918;2024-02-26T04:05:10;12.8;100.0
22674;DHT22;11504;43.334;21.918;2024-02-26T04:09:48;12.8;100.0
22674;DHT22;11504;43.334;21.918;2024-02-26T04:14:24;12.7;100.0
22674;DHT22;11504;43.334;21.918;2024-02-26T04:19:01;12.7;100.0
22674;DHT22;11504;43.334;21.918;2024-02-26T04:23:37;12.6;100.0
22674;DHT22;11504;43.334;21.918;2024-02-26T04:28:14;12.6;100.0
22674;DHT22;11504;43.334;21.918;2024-02-26T04:32:51;12.5;100.0
22674;DHT22;11504;43.334;21.918;2024-02-26T04:37:27;12.5;100.0
22674;DHT22;11504;43.334;21.918;2024-02-26T04:42:03;12.5;100.0
22674;DHT22;11504;43.334;21.918;2024-02-26T04:46:40;12.4;100.0
22674;DHT22;11504;43.334;21.918;2024-02-26T04:51:16;12.4;100.0
22674;DHT22;11504;43.334;21.918;2024-02-26T04:55:52;12.4;100.0
22674;DHT22;11504;43.334;21.918;2024-02-26T05:00:29;12.4;100.0
22674;DHT22;11504;43.334;21.918;2024-02-26T05:05:07;12.4;100.0
22674;DHT22;11504;43.334;21.918;2024-02-26T05:09:44;12.4;100.0
22674;DHT22;11504;43.334;21.918;2024-02-26T05:14:22;12.3;100.0
22674;DHT22;11504;43.334;21.918;2024-02-26T05:18:59;12.3;100.0
22674;DHT22;11504;43.334;21.918;2024-02-26T05:23:35;12.4;100.0
22674;DHT22;11504;43.334;21.918;2024-02-26T05:28:11;12.4;100.0
22674;DHT22;11504;43.334;21.918;2024-02-26T05:32:47;12.4;100.0
22674;DHT22;11504;43.334;21.918;2024-02-26T05:37:23;12.4;100.0
22674;DHT22;11504;43.334;21.918;2024-02-26T05:42:00;12.4;100.0
22674;DHT22;11504;43.334;21.918;2024-02-26T05:46:35;12.4;100.0
22674;DHT22;11504;43.334;21.918;2024-02-26T05:51:12;12.4;100.0
22674;DHT22;11504;43.334;21.918;2024-02-26T05:55:48;12.4;100.0
22674;DHT22;11504;43.334;21.918;2024-02-26T06:00:24;12.4;100.0
22674;DHT22;11504;43.334;21.918;2024-02-26T06:05:00;12.4;100.0
22674;DHT22;11504;43.334;21.918;2024-02-26T06:09:36;12.4;100.0
22674;DHT22;11504;43.334;21.918;2024-02-26T06:14:12;12.4;100.0
22674;DHT22;11504;43.334;21.918;2024-02-26T06:18:49;12.4;100.0
22674;DHT22;11504;43.334;21.918;2024-02-26T06:23:25;12.5;100.0
22674;DHT22;11504;43.334;21.918;2024-02-26T06:28:02;12.5;100.0
22674;DHT22;11504;43.334;21.918;2024-02-26T06:32:41;12.6;100.0
22674;DHT22;11504;43.334;21.918;2024-02-26T06:37:18;12.6;100.0
22674;DHT22;11504;43.334;21.918;2024-02-26T06:41:54;12.6;100.0
22674;DHT22;11504;43.334;21.918;2024-02-26T06:46:31;12.7;100.0
22674;DHT22;11504;43.334;21.918;2024-02-26T06:51:07;12.7;100.0
22674;DHT22;11504;43.334;21.918;2024-02-26T06:55:43;12.8;100.0
22674;DHT22;11504;43.334;21.918;2024-02-26T07:00:20;12.8;100.0
22674;DHT22;11504;43.334;21.918;2024-02-26T07:04:56;13.0;100.0
22674;DHT22;11504;43.334;21.918;2024-02-26T07:09:32;13.0;100.0
22674;DHT22;11504;43.334;21.918;2024-02-26T07:14:10;13.3;100.0
22674;DHT22;11504;43.334;21.918;2024-02-26T07:18:48;13.3;100.0
22674;DHT22;11504;43.334;21.918;2024-02-26T07:23:24;13.4;100.0
22674;DHT22;11504;43.334;21.918;2024-02-26T07:28:01;13.4;100.0
22674;DHT22;11504;43.334;21.918;2024-02-26T07:32:37;13.4;100.0
22674;DHT22;11504;43.334;21.918;2024-02-26T07:37:14;13.6;100.0
22674;DHT22;11504;43.334;21.918;2024-02-26T07:41:50;13.6;100.0
22674;DHT22;11504;43.334;21.918;2024-02-26T07:46:26;13.8;100.0
22674;DHT22;11504;43.334;21.918;2024-02-26T07:51:03;13.8;100.0
22674;DHT22;11504;43.334;21.918;2024-02-26T07:55:41;14.0;100.0
22674;DHT22;11504;43.334;21.918;2024-02-26T08:00:19;14.0;100.0
22674;DHT22;11504;43.334;21.918;2024-02-26T08:04:56;14.3;100.0
22674;DHT22;11504;43.334;21.918;2024-02-26T08:09:33;14.3;100.0
22674;DHT22;11504;43.334;21.918;2024-02-26T08:14:09;14.6;100.0
22674;DHT22;11504;43.334;21.918;2024-02-26T08:18:45;14.6;100.0
22674;DHT22;11504;43.334;21.918;2024-02-26T08:23:21;15.0;100.0
22674;DHT22;11504;43.334;21.918;2024-02-26T08:27:58;15.0;100.0
22674;DHT22;11504;43.334;21.918;2024-02-26T08:32:34;15.0;100.0
22674;DHT22;11504;43.334;21.918;2024-02-26T08:37:10;15.4;100.0
22674;DHT22;11504;43.334;21.918;2024-02-26T08:41:46;15.4;100.0
22674;DHT22;11504;43.334;21.918;2024-02-26T08:46:22;15.7;100.0
22674;DHT22;11504;43.334;21.918;2024-02-26T08:50:58;15.7;100.0
22674;DHT22;11504;43.334;21.918;2024-02-26T08:55:34;16.0;100.0
22674;DHT22;11504;43.334;21.918;2024-02-26T09:00:12;16.0;100.0
22674;DHT22;11504;43.334;21.918;2024-02-26T09:04:49;16.4;100.0
22674;DHT22;11504;43.334;21.918;2024-02-26T09:09:25;16.4;100.0
22674;DHT22;11504;43.334;21.918;2024-02-26T09:14:02;16.7;100.0
22674;DHT22;11504;43.334;21.918;2024-02-26T09:18:38;16.7;100.0
22674;DHT22;11504;43.334;21.918;2024-02-26T09:23:15;16.8;100.0
22674;DHT22;11504;43.334;21.918;2024-02-26T09:27:52;16.8;100.0
22674;DHT22;11504;43.334;21.918;2024-02-26T09:32:28;16.8;100.0
22674;DHT22;11504;43.334;21.918;2024-02-26T09:37:06;17.0;100.0
22674;DHT22;11504;43.334;21.918;2024-02-26T09:41:44;17.0;100.0
22674;DHT22;11504;43.334;21.918;2024-02-26T09:46:21;17.3;100.0
22674;DHT22;11504;43.334;21.918;2024-02-26T09:51:01;17.3;100.0
22674;DHT22;11504;43.334;21.918;2024-02-26T09:55:41;17.6;100.0
22674;DHT22;11504;43.334;21.918;2024-02-26T10:00:21;17.6;100.0
22674;DHT22;11504;43.334;21.918;2024-02-26T10:05:01;17.8;100.0
22674;DHT22;11504;43.334;21.918;2024-02-26T10:09:44;17.8;100.0
22674;DHT22;11504;43.334;21.918;2024-02-26T10:14:21;18.0;100.0
22674;DHT22;11504;43.334;21.918;2024-02-26T10:18:57;18.0;100.0
22674;DHT22;11504;43.334;21.918;2024-02-26T10:23:33;18.0;100.0
22674;DHT22;11504;43.334;21.918;2024-02-26T10:28:10;18.0;100.0
22674;DHT22;11504;43.334;21.918;2024-02-26T10:32:48;18.0;100.0
22674;DHT22;11504;43.334;21.918;2024-02-26T10:37:27;18.1;100.0
22674;DHT22;11504;43.334;21.918;2024-02-26T10:42:03;18.1;100.0
22674;DHT22;11504;43.334;21.918;2024-02-26T10:46:41;18.2;100.0
22674;DHT22;11504;43.334;21.918;2024-02-26T10:51:30;18.2;100.0
22674;DHT22;11504;43.334;21.918;2024-02-26T10:56:17;18.3;100.0
22674;DHT22;11504;43.334;21.918;2024-02-26T11:01:00;18.3;100.0
22674;DHT22;11504;43.334;21.918;2024-02-26T11:05:40;18.4;100.0
22674;DHT22;11504;43.334;21.918;2024-02-26T11:10:19;18.4;100.0
22674;DHT22;11504;43.334;21.918;2024-02-26T11:14:59;18.4;100.0
22674;DHT22;11504;43.334;21.918;2024-02-26T11:19:38;18.4;100.0
22674;DHT22;11504;43.334;21.918;2024-02-26T11:24:18;18.4;100.0
22674;DHT22;11504;43.334;21.918;2024-02-26T11:28:55;18.4;100.0
22674;DHT22;11504;43.334;21.918;2024-02-26T11:33:33;18.5;100.0
22674;DHT22;11504;43.334;21.918;2024-02-26T11:38:19;18.5;100.0
22674;DHT22;11504;43.334;21.918;2024-02-26T11:43:00;18.4;100.0
22674;DHT22;11504;43.334;21.918;2024-02-26T11:47:36;18.4;100.0
22674;DHT22;11504;43.334;21.918;2024-02-26T11:52:15;18.4;100.0
22674;DHT22;11504;43.334;21.918;2024-02-26T11:56:52;18.3;100.0
22674;DHT22;11504;43.334;21.918;2024-02-26T12:01:47;18.3;100.0
22674;DHT22;11504;43.334;21.918;2024-02-26T12:06:24;18.3;100.0
22674;DHT22;11504;43.334;21.918;2024-02-26T12:11:03;18.3;100.0
22674;DHT22;11504;43.334;21.918;2024-02-26T12:15:57;18.3;100.0
22674;DHT22;11504;43.334;21.918;2024-02-26T12:20:34;18.3;100.0
22674;DHT22;11504;43.334;21.918;2024-02-26T12:25:10;18.4;100.0
22674;DHT22;11504;43.334;21.918;2024-02-26T12:29:48;18.4;100.0
22674;DHT22;11504;43.334;21.918;2024-02-26T12:34:25;18.5;100.0
22674;DHT22;11504;43.334;21.918;2024-02-26T12:39:03;18.5;100.0
22674;DHT22;11504;43.334;21.918;2024-02-26T12:43:41;18.5;100.0
22674;DHT22;11504;43.334;21.918;2024-02-26T12:48:17;18.5;100.0
22674;DHT22;11504;43.334;21.918;2024-02-26T12:52:54;18.5;100.0
22674;DHT22;11504;43.334;21.918;2024-02-26T12:57:34;18.5;100.0
22674;DHT22;11504;43.334;21.918;2024-02-26T13:02:15;18.5;100.0
22674;DHT22;11504;43.334;21.918;2024-02-26T13:06:52;18.6;100.0
22674;DHT22;11504;43.334;21.918;2024-02-26T13:11:29;18.6;100.0
22674;DHT22;11504;43.334;21.918;2024-02-26T13:16:13;18.8;100.0
22674;DHT22;11504;43.334;21.918;2024-02-26T13:20:51;18.8;100.0
22674;DHT22;11504;43.334;21.918;2024-02-26T13:25:27;18.8;100.0
22674;DHT22;11504;43.334;21.918;2024-02-26T13:30:09;18.8;100.0
22674;DHT22;11504;43.334;21.918;2024-02-26T13:34:48;18.9;100.0
22674;DHT22;11504;43.334;21.918;2024-02-26T13:39:26;18.9;100.0
22674;DHT22;11504;43.334;21.918;2024-02-26T13:44:04;19.0;100.0
22674;DHT22;11504;43.334;21.918;2024-02-26T13:48:40;19.0;100.0
22674;DHT22;11504;43.334;21.918;2024-02-26T13:53:17;19.0;100.0
22674;DHT22;11504;43.334;21.918;2024-02-26T13:57:53;19.0;100.0
22674;DHT22;11504;43.334;21.918;2024-02-26T14:02:30;19.0;100.0
22674;DHT22;11504;43.334;21.918;2024-02-26T14:07:08;19.0;100.0
22674;DHT22;11504;43.334;21.918;2024-02-26T14:11:47;19.0;100.0
22674;DHT22;11504;43.334;21.918;2024-02-26T14:16:24;19.1;100.0
22674;DHT22;11504;43.334;21.918;2024-02-26T14:21:00;19.1;100.0
22674;DHT22;11504;43.334;21.918;2024-02-26T14:25:37;19.0;100.0
22674;DHT22;11504;43.334;21.918;2024-02-26T14:30:15;19.0;100.0
22674;DHT22;11504;43.334;21.918;2024-02-26T14:34:52;18.9;100.0
22674;DHT22;11504;43.334;21.918;2024-02-26T14:39:29;18.9;100.0
22674;DHT22;11504;43.334;21.918;2024-02-26T14:44:08;19.0;100.0
22674;DHT22;11504;43.334;21.918;2024-02-26T14:48:44;19.0;100.0
22674;DHT22;11504;43.334;21.918;2024-02-26T14:53:21;19.0;100.0
22674;DHT22;11504;43.334;21.918;2024-02-26T14:57:57;19.0;100.0
22674;DHT22;11504;43.334;21.918;2024-02-26T15:02:33;19.0;100.0
22674;DHT22;11504;43.334;21.918;2024-02-26T15:07:10;19.0;100.0
22674;DHT22;11504;43.334;21.918;2024-02-26T15:11:46;19.0;100.0
22674;DHT22;11504;43.334;21.918;2024-02-26T15:16:22;19.0;100.0
22674;DHT22;11504;43.334;21.918;2024-02-26T15:20:58;19.0;100.0
22674;DHT22;11504;43.334;21.918;2024-02-26T15:25:34;18.9;100.0
22674;DHT22;11504;43.334;21.918;2024-02-26T15:30:12;18.9;100.0
22674;DHT22;11504;43.334;21.918;2024-02-26T15:34:50;18.8;100.0
22674;DHT22;11504;43.334;21.918;2024-02-26T15:39:26;18.8;100.0
22674;DHT22;11504;43.334;21.918;2024-02-26T15:44:03;18.6;100.0
22674;DHT22;11504;43.334;21.918;2024-02-26T15:48:41;18.6;100.0
22674;DHT22;11504;43.334;21.918;2024-02-26T15:53:18;18.4;100.0
22674;DHT22;11504;43.334;21.918;2024-02-26T15:57:54;18.4;100.0
22674;DHT22;11504;43.334;21.918;2024-02-26T16:02:30;18.4;100.0
22674;DHT22;11504;43.334;21.918;2024-02-26T16:07:19;18.2;100.0
22674;DHT22;11504;43.334;21.918;2024-02-26T16:12:25;18.2;100.0
22674;DHT22;11504;43.334;21.918;2024-02-26T16:17:26;18.1;100.0
22674;DHT22;11504;43.334;21.918;2024-02-26T16:22:11;18.1;100.0
22674;DHT22;11504;43.334;21.918;2024-02-26T16:26:47;18.0;100.0
22674;DHT22;11504;43.334;21.918;2024-02-26T16:31:23;18.0;100.0
22674;DHT22;11504;43.334;21.918;2024-02-26T16:35:58;17.8;100.0
22674;DHT22;11504;43.334;21.918;2024-02-26T16:40:36;17.8;100.0
22674;DHT22;11504;43.334;21.918;2024-02-26T16:45:16;17.6;100.0
22674;DHT22;11504;43.334;21.918;2024-02-26T16:49:52;17.6;100.0
22674;DHT22;11504;43.334;21.918;2024-02-26T16:54:28;17.5;100.0
22674;DHT22;11504;43.334;21.918;2024-02-26T16:59:05;17.5;100.0
22674;DHT22;11504;43.334;21.918;2024-02-26T17:03:41;17.4;100.0
22674;DHT22;11504;43.334;21.918;2024-02-26T17:08:17;17.4;100.0
22674;DHT22;11504;43.334;21.918;2024-02-26T17:12:54;17.4;100.0
22674;DHT22;11504;43.334;21.918;2024-02-26T17:17:30;17.3;100.0
22674;DHT22;11504;43.334;21.918;2024-02-26T17:22:07;17.3;100.0
22674;DHT22;11504;43.334;21.918;2024-02-26T17:26:43;17.0;100.0
22674;DHT22;11504;43.334;21.918;2024-02-26T17:31:19;17.0;100.0
22674;DHT22;11504;43.334;21.918;2024-02-26T17:35:56;16.8;100.0
22674;DHT22;11504;43.334;21.918;2024-02-26T17:40:32;16.8;100.0
22674;DHT22;11504;43.334;21.918;2024-02-26T17:45:10;16.7;100.0
22674;DHT22;11504;43.334;21.918;2024-02-26T17:49:46;16.7;100.0
22674;DHT22;11504;43.334;21.918;2024-02-26T17:54:23;16.6;100.0
22674;DHT22;11504;43.334;21.918;2024-02-26T17:58:59;16.6;100.0
22674;DHT22;11504;43.334;21.918;2024-02-26T18:03:34;16.5;100.0
22674;DHT22;11504;43.334;21.918;2024-02-26T18:08:11;16.5;100.0
22674;DHT22;11504;43.334;21.918;2024-02-26T18:12:47;16.5;100.0
22674;DHT22;11504;43.334;21.918;2024-02-26T18:17:23;16.3;100.0
22674;DHT22;11504;43.334;21.918;2024-02-26T18:21:59;16.3;100.0
22674;DHT22;11504;43.334;21.918;2024-02-26T18:26:36;16.2;100.0
22674;DHT22;11504;43.334;21.918;2024-02-26T18:31:12;16.2;100.0
22674;DHT22;11504;43.334;21.918;2024-02-26T18:35:49;16.1;100.0
22674;DHT22;11504;43.334;21.918;2024-02-26T18:40:26;16.1;100.0
22674;DHT22;11504;43.334;21.918;2024-02-26T18:45:02;16.0;100.0
22674;DHT22;11504;43.334;21.918;2024-02-26T18:49:41;16.0;100.0
22674;DHT22;11504;43.334;21.918;2024-02-26T18:54:17;15.8;100.0
22674;DHT22;11504;43.334;21.918;2024-02-26T18:58:53;15.8;100.0
22674;DHT22;11504;43.334;21.918;2024-02-26T19:03:29;15.8;100.0
22674;DHT22;11504;43.334;21.918;2024-02-26T19:08:06;15.8;100.0
22674;DHT22;11504;43.334;21.918;2024-02-26T19:12:42;15.8;100.0
22674;DHT22;11504;43.334;21.918;2024-02-26T19:17:19;15.7;100.0
22674;DHT22;11504;43.334;21.918;2024-02-26T19:21:55;15.7;100.0
22674;DHT22;11504;43.334;21.918;2024-02-26T19:26:32;15.6;100.0
22674;DHT22;11504;43.334;21.918;2024-02-26T19:31:10;15.6;100.0
22674;DHT22;11504;43.334;21.918;2024-02-26T19:35:48;15.6;100.0
22674;DHT22;11504;43.334;21.918;2024-02-26T19:40:24;15.6;100.0
22674;DHT22;11504;43.334;21.918;2024-02-26T19:45:00;15.6;100.0
22674;DHT22;11504;43.334;21.918;2024-02-26T19:49:37;15.6;100.0
22674;DHT22;11504;43.334;21.918;2024-02-26T20:26:30;15.1;100.0
22674;DHT22;11504;43.334;21.918;2024-02-26T20:31:06;15.1;100.0
22674;DHT22;11504;43.334;21.918;2024-02-26T20:35:43;15.1;100.0
22674;DHT22;11504;43.334;21.918;2024-02-26T20:40:19;15.1;100.0
22674;DHT22;11504;43.334;21.918;2024-02-26T20:44:55;15.0;100.0
22674;DHT22;11504;43.334;21.918;2024-02-26T20:49:31;15.0;100.0
22674;DHT22;11504;43.334;21.918;2024-02-26T20:54:07;14.8;100.0
22674;DHT22;11504;43.334;21.918;2024-02-26T20:58:44;14.8;100.0
22674;DHT22;11504;43.334;21.918;2024-02-26T21:03:20;14.8;100.0
22674;DHT22;11504;43.334;21.918;2024-02-26T21:07:56;14.7;100.0
22674;DHT22;11504;43.334;21.918;2024-02-26T21:12:33;14.7;100.0
22674;DHT22;11504;43.334;21.918;2024-02-26T21:17:09;14.6;100.0
22674;DHT22;11504;43.334;21.918;2024-02-26T21:21:46;14.6;100.0
22674;DHT22;11504;43.334;21.918;2024-02-26T21:26:22;14.4;100.0
22674;DHT22;11504;43.334;21.918;2024-02-26T21:30:58;14.4;100.0
22674;DHT22;11504;43.334;21.918;2024-02-26T21:35:34;14.3;100.0
22674;DHT22;11504;43.334;21.918;2024-02-26T21:40:12;14.3;100.0
22674;DHT22;11504;43.334;21.918;2024-02-26T21:44:49;14.2;100.0
22674;DHT22;11504;43.334;21.918;2024-02-26T21:49:25;14.2;100.0
22674;DHT22;11504;43.334;21.918;2024-02-26T21:54:01;14.2;100.0
22674;DHT22;11504;43.334;21.918;2024-02-26T21:58:37;14.2;100.0
22674;DHT22;11504;43.334;21.918;2024-02-26T22:03:13;14.2;100.0
22674;DHT22;11504;43.334;21.918;2024-02-26T22:07:49;14.0;100.0
22674;DHT22;11504;43.334;21.918;2024-02-26T22:12:25;14.0;100.0
22674;DHT22;11504;43.334;21.918;2024-02-26T22:17:03;13.9;100.0
22674;DHT22;11504;43.334;21.918;2024-02-26T22:21:42;13.9;100.0
22674;DHT22;11504;43.334;21.918;2024-02-26T22:26:21;13.8;100.0
22674;DHT22;11504;43.334;21.918;2024-02-26T22:30:57;13.8;100.0
22674;DHT22;11504;43.334;21.918;2024-02-26T22:35:34;13.8;100.0
22674;DHT22;11504;43.334;21.918;2024-02-26T22:40:12;13.8;100.0
22674;DHT22;11504;43.334;21.918;2024-02-26T22:44:49;13.8;100.0
22674;DHT22;11504;43.334;21.918;2024-02-26T22:49:26;13.8;100.0
22674;DHT22;11504;43.334;21.918;2024-02-26T22:54:03;13.7;100.0
22674;DHT22;11504;43.334;21.918;2024-02-26T22:58:40;13.7;100.0
22674;DHT22;11504;43.334;21.918;2024-02-26T23:03:16;13.7;100.0
22674;DHT22;11504;43.334;21.918;2024-02-26T23:07:56;13.6;100.0
22674;DHT22;11504;43.334;21.918;2024-02-26T23:12:33;13.6;100.0
22674;DHT22;11504;43.334;21.918;2024-02-26T23:17:10;13.5;100.0
22674;DHT22;11504;43.334;21.918;2024-02-26T23:21:46;13.5;100.0
22674;DHT22;11504;43.334;21.918;2024-02-26T23:26:22;13.4;100.0
22674;DHT22;11504;43.334;21.918;2024-02-26T23:30:59;13.4;100.0
22674;DHT22;11504;43.334;21.918;2024-02-26T23:35:35;13.4;100.0
22674;DHT22;11504;43.334;21.918;2024-02-26T23:40:12;13.4;100.0
22674;DHT22;11504;43.334;21.918;2024-02-26T23:44:48;13.4;100.0
22674;DHT22;11504;43.334;21.918;2024-02-26T23:49:25;13.4;100.0
22674;DHT22;11504;43.334;21.918;2024-02-26T23:54:02;13.4;100.0
22674;DHT22;11504;43.334;21.918;2024-02-26T23:58:38;13.4;100.0
